Data for 06/20/2014

Time Sea-Level Adjusted Pressure Absolute Pressure Temperature Relative Humidity Dew Point   
(mb) (inHg) (mb) (inHg) (C) (F) (%) (C) (F)
00:05 1019 30.09 848 25.04 13.3 56 52 3.9 39
00:10 1019 30.09 848 25.04 13 55.4 53 3.6 38.5
00:15 1019 30.09 848 25.04 13.2 55.8 50 3 37.3
00:20 1019 30.09 848 25.04 13.7 56.6 49 3.3 37.9
00:25 1019 30.09 848 25.04 13.6 56.5 50 3.4 38.2
00:30 1019 30.09 848 25.04 13.3 56 52 3.9 38.9
00:35 1019 30.09 848 25.04 12.7 54.9 54 3.7 38.7
00:40 1019 30.09 848 25.04 12.5 54.6 53 3.3 38
00:45 1019 30.09 848 25.04 12.6 54.6 55 3.9 39
00:50 1019 30.09 848 25.04 11.9 53.4 59 4.1 39.3
00:55 1019 30.09 848 25.04 11.4 52.6 59 3.9 39
01:00 1019 30.09 848 25.04 11.4 52.6 58 3.5 38.3
01:05 1019 30.09 848 25.04 11.9 53.4 54 3 37.4
01:10 1019 30.09 848 25.04 12.5 54.6 54 3.6 38.4
01:15 1019 30.09 848 25.04 12.4 54.3 56 3.8 38.8
01:20 1019 30.09 848 25.04 12.2 54 54 3.3 37.9
01:25 1019 30.09 848 25.04 12.6 54.6 54 3.6 38.6
01:30 1019 30.09 848 25.04 12.4 54.2 57 4 39.2
01:35 1019 30.09 848 25.04 11.6 53 60 4.1 39.5
01:40 1019 30.09 848 25.04 10.7 51.3 64 4.2 39.5
01:45 1019 30.09 848 25.04 10.5 50.9 62 3.6 38.6
01:50 1019 30.09 848 25.04 10.7 51.2 61 3.5 38.3
01:55 1019 30.09 848 25.04 10.8 51.4 62 3.8 38.8
02:00 1019 30.09 848 25.04 10.5 50.9 64 4.1 39.4
02:05 1019 30.09 848 25.04 9.9 49.9 67 4.1 39.4
02:10 1019 30.09 848 25.04 9.6 49.3 68 4 39.2
02:15 1019 30.09 848 25.04 9.5 49 68 3.9 39
02:20 1019 30.09 848 25.04 9.8 49.6 65 3.5 38.2
02:25 1019 30.09 848 25.04 10.3 50.5 63 3.6 38.4
02:30 1019 30.09 848 25.04 10.5 50.8 63 3.7 38.7
02:35 1019 30.09 848 25.04 10.4 50.7 63 3.8 38.8
02:40 1019 30.09 848 25.04 10.2 50.4 64 3.8 38.8
02:45 1019 30.09 848 25.04 10.1 50.2 64 3.7 38.7
02:50 1019 30.09 848 25.04 10.1 50.2 64 3.6 38.5
02:55 1019 30.09 848 25.04 10.2 50.4 64 3.7 38.6
03:00 1019 30.09 848 25.04 10.2 50.3 64 3.7 38.7
03:05 1019 30.09 848 25.04 10.5 50.8 61 3.2 37.8
03:10 1019 30.09 848 25.04 10.9 51.7 62 3.9 39.1
03:15 1019 30.09 848 25.04 10.4 50.8 63 3.8 38.9
03:20 1019 30.09 848 25.04 10.1 50.2 63 3.5 38.3
03:25 1019 30.09 848 25.04 10.4 50.8 62 3.5 38.2
03:30 1019 30.09 849 25.07 10.6 51.1 61 3.4 38.1
03:35 1019 30.09 849 25.07 10.7 51.3 62 3.7 38.7
03:40 1019 30.09 849 25.07 10.2 50.4 64 3.7 38.6
03:45 1019 30.09 849 25.07 10.1 50.2 62 3.2 37.8
03:50 1019 30.09 849 25.07 10.5 50.8 61 3.3 38
03:55 1019 30.09 849 25.07 10.7 51.2 61 3.4 38.2
04:00 1019 30.09 849 25.07 10.7 51.2 61 3.6 38.4
04:05 1019 30.09 849 25.07 9.9 49.8 66 3.9 39
04:10 1019 30.09 848 25.04 9.5 49.2 66 3.5 38.3
04:15 1019 30.09 849 25.07 9.6 49.3 66 3.7 38.6
04:20 1019 30.09 849 25.07 9.7 49.5 64 3.3 37.9
04:25 1019 30.09 849 25.07 9.7 49.5 67 3.8 38.9
04:30 1019 30.09 849 25.07 9.6 49.3 66 3.5 38.3
04:35 1019 30.09 849 25.07 9.6 49.3 67 3.9 39
04:40 1019 30.09 849 25.07 9.2 48.6 68 3.7 38.6
04:45 1019 30.09 849 25.07 9.4 48.8 67 3.5 38.3
04:50 1020 30.12 849 25.07 9.7 49.5 65 3.5 38.3
04:55 1020 30.12 849 25.07 9.6 49.3 68 3.9 39.1
05:00 1020 30.12 849 25.07 9.3 48.7 68 3.8 38.8
05:05 1020 30.12 849 25.07 9.2 48.6 69 3.8 38.8
05:10 1020 30.12 849 25.07 9.2 48.6 68 3.8 38.8
05:15 1020 30.12 849 25.07 9.3 48.7 68 3.8 38.8
05:20 1020 30.12 849 25.07 9.3 48.8 68 3.7 38.7
05:25 1020 30.12 849 25.07 9.3 48.7 69 3.9 39.1
05:30 1020 30.12 849 25.07 9.1 48.4 69 3.7 38.7
05:35 1020 30.12 849 25.07 9.3 48.7 67 3.6 38.4
05:40 1020 30.12 849 25.07 9.5 49.2 67 3.8 38.8
05:45 1020 30.12 849 25.07 9.5 49.1 69 4 39.2
05:50 1020 30.12 849 25.07 9.1 48.3 70 4 39.2
05:55 1020 30.12 849 25.07 8.8 47.9 71 3.9 39
06:00 1020 30.12 849 25.07 9 48.2 70 3.8 38.8
06:05 1019 30.09 849 25.07 9.7 49.4 67 3.8 38.8
06:10 1020 30.12 849 25.07 10.2 50.4 64 3.7 38.7
06:15 1020 30.12 849 25.07 10.9 51.6 62 3.8 38.9
06:20 1020 30.12 849 25.07 11.3 52.4 60 3.9 39.1
06:25 1019 30.09 849 25.07 11.7 53.1 58 3.9 39
06:30 1019 30.09 849 25.07 12.2 54 58 4.3 39.8
06:35 1019 30.09 849 25.07 12.5 54.5 57 4.2 39.6
06:40 1019 30.09 849 25.07 12.7 54.9 56 4.3 39.7
06:45 1019 30.09 849 25.07 13 55.4 56 4.6 40.3
06:50 1019 30.09 849 25.07 13.3 55.9 56 4.7 40.4
06:55 1019 30.09 849 25.07 13.6 56.6 55 4.9 40.8
07:00 1019 30.09 849 25.07 14.1 57.4 52 4.6 40.3
07:05 1019 30.09 849 25.07 14.7 58.5 52 5.1 41.1
07:10 1019 30.09 849 25.07 15.1 59.2 51 5.2 41.3
07:15 1019 30.09 849 25.07 14.8 58.6 50 4.5 40.1
07:20 1019 30.09 849 25.07 15.6 60.1 46 4.2 39.6
07:25 1019 30.09 849 25.07 16 60.7 47 4.7 40.5
07:30 1019 30.09 849 25.07 16.9 62.4 45 4.9 40.9
07:35 1019 30.09 849 25.07 17.5 63.4 43 4.9 40.9
07:40 1019 30.09 849 25.07 17.9 64.2 41 4.6 40.4
07:45 1019 30.09 849 25.07 18.6 65.4 41 5.1 41.2
07:50 1019 30.09 849 25.07 18.7 65.6 39 4.4 39.9
07:55 1019 30.09 849 25.07 18.7 65.6 39 4.5 40.1
08:00 1019 30.09 849 25.07 19 66.2 37 4.1 39.3
08:05 1019 30.09 849 25.07 18.9 65.9 37 4.1 39.4
08:10 1019 30.09 849 25.07 18.8 65.9 38 4.2 39.6
08:15 1019 30.09 849 25.07 18.7 65.6 37 3.7 38.7
08:20 1019 30.09 849 25.07 19.2 66.5 35 3.5 38.2
08:25 1020 30.12 849 25.07 19.9 67.9 35 4 39.3
08:30 1019 30.09 849 25.07 19.6 67.2 34 3.4 38
08:35 1019 30.09 849 25.07 20.2 68.4 33 3.4 38.1
08:40 1019 30.09 849 25.07 20 68.1 33 3.4 38
08:45 1019 30.09 849 25.07 19.7 67.5 35 3.8 38.9
08:50 1019 30.09 849 25.07 20.4 68.7 32 3.5 38.3
08:55 1019 30.09 849 25.07 20.8 69.4 33 4.1 39.4
09:00 1019 30.09 849 25.07 20.5 68.8 34 4.4 39.9
09:05 1019 30.09 849 25.07 20.4 68.8 33 4 39.2
09:10 1019 30.09 848 25.04 20.9 69.6 32 3.9 39.1
09:15 1019 30.09 848 25.04 21.1 70 32 4 39.2
09:20 1019 30.09 848 25.04 20.6 69 37 5.5 42
09:25 1019 30.09 848 25.04 20.3 68.6 35 4.4 40
09:30 1019 30.09 848 25.04 20.5 68.8 36 5.1 41.1
09:35 1019 30.09 848 25.04 20.6 69.1 34 4.2 39.6
09:40 1019 30.09 848 25.04 21.3 70.3 32 4.2 39.6
09:45 1019 30.09 848 25.04 20.7 69.3 33 4.2 39.6
09:50 1019 30.09 848 25.04 20.7 69.2 32 3.4 38.2
09:55 1019 30.09 848 25.04 22 71.5 29 3.5 38.3
10:00 1019 30.09 848 25.04 22.2 71.9 31 4.3 39.7
10:05 1019 30.09 848 25.04 21.3 70.4 32 4.4 39.8
10:10 1019 30.09 848 25.04 21.5 70.6 30 3.4 38.2
10:15 1019 30.09 848 25.04 22.2 71.9 29 3.3 37.9
10:20 1019 30.09 848 25.04 22.9 73.1 26 2.7 36.8
10:25 1019 30.09 848 25.04 22.3 72.1 31 4.3 39.7
10:30 1019 30.09 848 25.04 22.1 71.8 28 2.9 37.3
10:35 1019 30.09 848 25.04 22 71.6 30 4 39.1
10:40 1018 30.06 848 25.04 22.4 72.4 26 2.4 36.3
10:45 1018 30.06 848 25.04 22.4 72.4 31 4.6 40.2
10:50 1018 30.06 848 25.04 22.5 72.4 29 3.6 38.5
10:55 1018 30.06 848 25.04 22.6 72.6 26 2.2 36
11:00 1018 30.06 848 25.04 22.9 73.1 26 2.3 36.2
11:05 1018 30.06 848 25.04 23.1 73.6 24 1.8 35.3
11:10 1018 30.06 848 25.04 23 73.4 25 1.9 35.5
11:15 1018 30.06 848 25.04 23 73.5 24 1.9 35.4
11:20 1018 30.06 848 25.04 23.5 74.2 24 2 35.5
11:25 1018 30.06 848 25.04 23.4 74.1 26 2.8 37
11:30 1018 30.06 848 25.04 22.7 72.9 26 2.4 36.3
11:35 1018 30.06 847 25.01 22.1 71.9 27 2.4 36.4
11:40 1018 30.06 847 25.01 21.8 71.3 27 2.1 35.7
11:45 1018 30.06 847 25.01 22.3 72.2 27 2.8 37
11:50 1018 30.06 847 25.01 22.5 72.5 27 2.5 36.5
11:55 1018 30.06 847 25.01 22.9 73.2 24 1.6 34.9
12:00 1018 30.06 847 25.01 23 73.4 25 2 35.7
12:05 1018 30.06 847 25.01 23.1 73.6 26 2.7 36.9
12:10 1018 30.06 847 25.01 23.6 74.5 25 2.5 36.5
12:15 1018 30.06 847 25.01 23.7 74.7 27 3.7 38.6
12:20 1018 30.06 847 25.01 23.2 73.7 26 2.9 37.3
12:25 1018 30.06 847 25.01 22.2 72 28 3.3 37.9
12:30 1018 30.06 847 25.01 21.6 70.8 29 2.9 37.2
12:35 1018 30.06 847 25.01 21.7 71 29 3.1 37.6
12:40 1018 30.06 847 25.01 22 71.6 28 3 37.4
12:45 1018 30.06 847 25.01 21.6 70.8 28 2.6 36.6
12:50 1018 30.06 847 25.01 22.2 72 27 2.6 36.8
12:55 1018 30.06 847 25.01 22.9 73.2 25 2.2 35.9
13:00 1017 30.03 847 25.01 23.7 74.6 25 2.8 37.1
13:05 1017 30.03 847 25.01 23 73.5 27 3 37.4
13:10 1017 30.03 847 25.01 23.3 74 25 2.4 36.4
13:15 1017 30.03 846 24.98 24.7 76.4 24 2.8 37.1
13:20 1017 30.03 846 24.98 24.7 76.4 24 2.9 37.1
13:25 1017 30.03 846 24.98 24.9 76.9 22 2.3 36.1
13:30 1017 30.03 846 24.98 24.8 76.6 23 2.3 36.2
13:35 1017 30.03 846 24.98 24.3 75.7 26 3.6 38.4
13:40 1017 30.03 846 24.98 23.1 73.5 27 3.4 38.1
13:45 1017 30.03 846 24.98 22.8 73 28 3.5 38.4
13:50 1017 30.03 847 25.01 22.6 72.7 28 3.3 38
13:55 1017 30.03 847 25.01 22.2 71.9 30 4.2 39.5
14:00 1018 30.06 847 25.01 21.8 71.2 34 5.3 41.5
14:05 1017 30.03 847 25.01 21.5 70.7 41 7.8 46.1
14:10 1017 30.03 846 24.98 22.1 71.7 43 9.1 48.4
14:15 1017 30.03 846 24.98 22.5 72.4 38 7.8 46
14:20 1017 30.03 846 24.98 22.4 72.3 32 5.1 41.2
14:25 1017 30.03 846 24.98 23.1 73.6 27 3.4 38.1
14:30 1017 30.03 846 24.98 22.7 72.8 28 3.4 38.1
14:35 1017 30.03 846 24.98 23 73.3 28 3.5 38.3
14:40 1017 30.03 846 24.98 22.5 72.5 29 3.9 39
14:45 1017 30.03 846 24.98 22.7 72.9 28 3.2 37.8
14:50 1017 30.03 846 24.98 22.6 72.8 28 3.7 38.6
14:55 1017 30.03 846 24.98 22.5 72.4 28 3.1 37.5
15:00 1017 30.03 846 24.98 22.5 72.5 28 3.2 37.8
15:05 1017 30.03 846 24.98 23.7 74.6 26 3.4 38.1
15:10 1016 30 846 24.98 24 75.1 24 2.6 36.6
15:15 1016 30 845 24.95 23.8 74.9 25 3 37.4
15:20 1016 30 845 24.95 23.6 74.5 25 2.6 36.7
15:25 1016 30 845 24.95 24.5 76.1 23 2.5 36.4
15:30 1016 30 845 24.95 24.7 76.5 24 2.9 37.1
15:35 1016 30 845 24.95 23.4 74.1 33 6.4 43.6
15:40 1016 30 846 24.98 22 71.5 35 6 42.8
15:45 1017 30.03 846 24.98 21.2 70.1 40 7.2 44.9
15:50 1017 30.03 846 24.98 20.8 69.4 41 7.2 44.9
15:55 1017 30.03 846 24.98 20.6 69.1 44 8.2 46.7
16:00 1017 30.03 846 24.98 20.2 68.4 43 7.2 45
16:05 1017 30.03 846 24.98 20 68 42 6.7 44
16:10 1017 30.03 847 25.01 19.6 67.4 46 7.8 46.1
16:15 1018 30.06 847 25.01 19.3 66.7 49 8.5 47.4
16:20 1017 30.03 847 25.01 19.1 66.3 48 7.8 46.1
16:25 1018 30.06 847 25.01 19.1 66.4 50 8.4 47.2
16:30 1019 30.09 848 25.04 18.4 65.1 48 7.4 45.3
16:35 1019 30.09 848 25.04 15.9 60.6 63 8.9 48.1
16:40 1019 30.09 848 25.04 14.3 57.7 69 8.7 47.7
16:45 1019 30.09 848 25.04 13.3 56 70 8 46.4
16:50 1019 30.09 849 25.07 13.3 55.9 72 8.3 47
16:55 1019 30.09 849 25.07 12.9 55.1 71 7.8 46.1
17:00 1019 30.09 848 25.04 13.1 55.5 74 8.6 47.4
17:05 1018 30.06 847 25.01 13.1 55.6 77 9.2 48.6
17:10 1018 30.06 847 25.01 12.2 54 80 8.8 47.9
17:15 1018 30.06 847 25.01 12.2 54 78 8.6 47.4
17:20 1018 30.06 847 25.01 12.3 54.1 78 8.6 47.5
17:25 1018 30.06 847 25.01 12.3 54.1 79 8.8 47.8
17:30 1018 30.06 847 25.01 12.3 54.2 78 8.5 47.3
17:35 1019 30.09 848 25.04 12.6 54.7 74 8.2 46.7
17:40 1019 30.09 848 25.04 12.9 55.3 75 8.7 47.7
17:45 1019 30.09 848 25.04 12.9 55.3 77 9 48.2
17:50 1018 30.06 847 25.01 12.8 55.1 76 8.8 47.9
17:55 1017 30.03 846 24.98 12.7 54.8 77 8.8 47.9
18:00 1017 30.03 846 24.98 12.9 55.1 75 8.6 47.6
18:05 1017 30.03 846 24.98 13 55.4 75 8.8 47.8
18:10 1017 30.03 846 24.98 13.1 55.6 76 9.1 48.3
18:15 1017 30.03 846 24.98 13.2 55.7 74 8.7 47.7
18:20 1017 30.03 846 24.98 13.3 56 74 8.8 47.9
18:25 1017 30.03 846 24.98 13.5 56.4 72 8.6 47.5
18:30 1017 30.03 846 24.98 13.7 56.7 69 8.2 46.8
18:35 1017 30.03 846 24.98 14.1 57.3 70 8.8 47.8
18:40 1017 30.03 846 24.98 14.2 57.6 70 8.8 47.8
18:45 1017 30.03 846 24.98 14.5 58.2 69 9.1 48.3
18:50 1017 30.03 846 24.98 14.6 58.3 66 8.4 47.1
18:55 1017 30.03 846 24.98 14.6 58.3 68 8.7 47.7
19:00 1017 30.03 846 24.98 14.5 58.1 64 7.9 46.2
19:05 1017 30.03 846 24.98 14.5 58.1 66 8.3 46.9
19:10 1017 30.03 846 24.98 14.5 58 65 8.1 46.6
19:15 1017 30.03 846 24.98 14.4 57.8 68 8.5 47.3
19:20 1017 30.03 846 24.98 14.3 57.7 67 8.2 46.8
19:25 1017 30.03 846 24.98 14.3 57.7 65 7.9 46.3
19:30 1017 30.03 846 24.98 14.5 58 64 7.7 45.8
19:35 1017 30.03 846 24.98 14.6 58.2 63 7.7 45.8
19:40 1017 30.03 846 24.98 14.6 58.3 61 7.4 45.2
19:45 1017 30.03 846 24.98 14.7 58.4 62 7.6 45.6
19:50 1017 30.03 847 25.01 14.5 58.2 60 7 44.7
19:55 1017 30.03 846 24.98 14.7 58.5 61 7.4 45.3
20:00 1017 30.03 846 24.98 14.7 58.5 68 8.9 48
20:05 1017 30.03 846 24.98 14.2 57.6 73 9.5 49.1
20:10 1017 30.03 846 24.98 13.7 56.6 75 9.4 48.9
20:15 1017 30.03 846 24.98 13.5 56.3 75 9.2 48.5
20:20 1017 30.03 847 25.01 13.6 56.5 75 9.2 48.6
20:25 1017 30.03 847 25.01 13.6 56.5 74 9.2 48.5
20:30 1017 30.03 847 25.01 13.5 56.3 75 9.2 48.5
20:35 1017 30.03 847 25.01 13.4 56.2 78 9.7 49.4
20:40 1018 30.06 847 25.01 13.6 56.5 75 9.3 48.7
20:45 1018 30.06 847 25.01 13.3 55.9 76 9.2 48.6
20:50 1018 30.06 847 25.01 13 55.5 78 9.3 48.7
20:55 1018 30.06 847 25.01 12.9 55.3 78 9.2 48.6
21:00 1018 30.06 847 25.01 12.9 55.2 78 9.2 48.6
21:05 1018 30.06 847 25.01 12.9 55.2 78 9.2 48.6
21:10 1018 30.06 847 25.01 12.8 55.1 77 8.9 48
21:15 1018 30.06 847 25.01 12.9 55.2 78 9.1 48.4
21:20 1018 30.06 847 25.01 12.8 55 76 8.8 47.8
21:25 1018 30.06 847 25.01 12.7 54.8 77 8.7 47.7
21:30 1018 30.06 847 25.01 12.7 54.9 75 8.3 47
21:35 1018 30.06 847 25.01 13 55.3 74 8.5 47.3
21:40 1018 30.06 847 25.01 12.8 55 75 8.6 47.5
21:45 1018 30.06 848 25.04 12.8 55 73 8.1 46.6
21:50 1018 30.06 848 25.04 13.1 55.5 72 8.3 46.9
21:55 1019 30.09 848 25.04 13.2 55.7 71 8 46.4
22:00 1019 30.09 848 25.04 13.3 55.9 73 8.5 47.3
22:05 1019 30.09 848 25.04 12.9 55.3 75 8.6 47.5
22:10 1019 30.09 848 25.04 12.5 54.4 76 8.4 47.1
22:15 1019 30.09 848 25.04 12.5 54.4 75 8.2 46.8
22:20 1019 30.09 848 25.04 12.8 55.1 75 8.5 47.2
22:25 1018 30.06 847 25.01 13 55.3 73 8.3 46.9
22:30 1018 30.06 847 25.01 12.5 54.6 76 8.5 47.3
22:35 1018 30.06 847 25.01 12.1 53.7 77 8.3 46.9
22:40 1018 30.06 848 25.04 12 53.6 78 8.3 46.9
22:45 1018 30.06 848 25.04 12.1 53.8 80 8.8 47.9
22:50 1018 30.06 848 25.04 12 53.7 79 8.6 47.4
22:55 1018 30.06 848 25.04 12.1 53.7 79 8.5 47.3
23:00 1018 30.06 848 25.04 12.2 54 79 8.8 47.8
23:05 1018 30.06 848 25.04 12.2 53.9 80 8.8 47.9
23:10 1019 30.09 848 25.04 12.1 53.8 80 8.8 47.9
23:15 1019 30.09 848 25.04 12 53.6 81 8.8 47.8
23:20 1019 30.09 848 25.04 12 53.6 81 8.8 47.8
23:25 1019 30.09 848 25.04 12.1 53.8 80 8.9 47.9
23:30 1019 30.09 848 25.04 11.9 53.4 83 9 48.3
23:35 1019 30.09 848 25.04 11.8 53.2 84 9.2 48.5
23:40 1019 30.09 848 25.04 11.9 53.4 83 9.1 48.3
23:45 1019 30.09 848 25.04 11.8 53.3 83 9.1 48.4
23:50 1019 30.09 848 25.04 11.4 52.5 84 8.8 47.9
23:55 1019 30.09 848 25.04 11.2 52.1 84 8.6 47.5
24:00 1019 30.09 848 25.04 11.1 52 83 8.4 47